EDT,Max TemperatureF,Mean TemperatureF,Min TemperatureF,Max Dew PointF,MeanDew PointF,Min DewpointF,Max Humidity, Mean Humidity, Min Humidity, Max Sea Level PressureIn, Mean Sea Level PressureIn, Min Sea Level PressureIn, Max VisibilityMiles, Mean VisibilityMiles, Min VisibilityMiles, Max Wind SpeedMPH, Mean Wind SpeedMPH, Max Gust SpeedMPH,PrecipitationIn, CloudCover, Events, WindDirDegrees
2013-3-1,41,39,36,26,22,19,64,54,44,29.93,29.88,29.80,10,10,10,20,10,28,0.00,8,,305
2013-3-2,37,34,31,20,18,14,56,50,44,29.95,29.91,29.87,10,10,10,21,12,26,0.00,8,,310
2013-3-3,36,31,26,16,13,9,58,50,42,30.01,29.95,29.91,10,10,9,22,13,29,T,5,Snow,306
2013-3-4,50,38,26,13,8,4,46,31,15,30.12,30.07,30.01,10,10,10,23,10,31,0.00,1,,307
2013-3-5,49,41,33,34,28,15,89,64,38,30.09,29.89,29.66,10,7,0,13,3,16,0.75,8,Fog-Rain-Snow,81
2013-3-6,39,36,33,32,27,23,96,78,59,30.11,29.82,29.62,10,8,1,28,13,37,0.18,7,Snow,304
2013-3-7,44,40,36,27,25,22,64,55,45,30.27,30.20,30.11,10,10,10,24,13,33,0.00,7,,322
2013-3-8,52,44,36,23,22,19,59,46,32,30.37,30.28,30.22,10,10,10,23,12,30,0.00,3,,334
2013-3-9,61,44,27,29,24,21,81,53,25,30.39,30.33,30.27,10,10,10,13,3,15,0.00,0,,33
2013-3-10,65,48,31,31,28,25,75,51,26,30.32,30.26,30.19,10,10,10,17,4,22,0.00,0,,134
2013-3-11,58,51,44,50,34,22,77,55,32,30.20,30.05,29.87,10,10,10,15,8,20,0.03,5,Rain,137
2013-3-12,56,48,40,54,40,27,93,66,38,30.02,29.86,29.73,10,9,4,28,12,35,0.47,4,Rain,299
2013-3-13,47,40,32,30,23,14,55,46,36,30.18,30.05,29.99,10,9,1,31,13,39,T,5,Snow,293
2013-3-14,48,39,29,15,12,10,50,36,21,30.28,30.20,30.14,10,10,10,29,15,37,T,2,,296
2013-3-15,65,49,33,33,23,11,47,37,27,30.17,30.02,29.86,10,10,2,20,9,24,0.00,0,,244
2013-3-16,77,61,44,52,42,33,86,59,31,29.85,29.75,29.59,10,10,4,40,7,49,0.06,3,Rain-Thunderstorm,251
2013-3-17,59,48,36,48,40,34,93,80,67,30.22,30.07,29.86,10,6,3,16,8,21,0.59,8,Rain,138
2013-3-18,36,35,33,34,31,30,96,93,89,30.24,30.11,29.93,10,5,2,13,6,16,0.19,8,Rain,118
2013-3-19,60,48,35,37,21,-1,92,53,13,30.04,29.91,29.82,10,10,9,38,13,47,0.00,2,,293
2013-3-20,55,44,33,24,8,1,54,34,14,30.09,29.96,29.80,10,10,10,26,10,36,0.00,1,,270
2013-3-21,37,31,24,24,11,6,59,46,32,30.01,29.88,29.80,10,10,10,24,14,32,T,5,,306
2013-3-22,50,36,22,13,10,7,57,38,18,30.08,30.02,29.96,10,10,10,18,8,26,0.00,0,,286
2013-3-23,58,44,30,21,18,14,56,39,22,30.06,29.99,29.92,10,10,10,14,4,18,0.00,4,,291
2013-3-24,43,38,32,32,28,20,96,68,39,29.96,29.78,29.61,10,4,0,12,3,14,0.83,6,Fog-Rain-Snow,111
2013-3-25,41,36,31,30,26,22,92,69,46,29.79,29.62,29.53,10,7,1,29,9,38,0.04,7,Snow,283
2013-3-26,45,41,36,27,24,23,59,52,45,30.13,29.95,29.80,10,10,10,24,14,36,0.00,7,,296
2013-3-27,45,40,34,26,22,20,75,57,39,30.25,30.20,30.14,10,10,9,23,11,36,T,7,,301
2013-3-28,52,44,36,24,21,17,59,45,30,30.30,30.25,30.22,10,10,10,22,12,31,T,5,,320
2013-3-29,60,46,31,25,22,17,69,46,22,30.34,30.26,30.18,10,10,10,21,8,28,0.00,1,,296
2013-3-30,65,49,33,32,26,24,70,46,22,30.27,30.17,30.08,10,10,10,13,4,20,0.00,1,,36
2013-3-31,61,53,44,50,41,26,93,66,38,30.06,29.90,29.79,10,7,1,13,2,15,0.26,6,Rain,205